createdAt,value
2019-05-15T00:00:25.111Z,68.05
2019-05-15T00:01:25.234Z,67.67
2019-05-15T00:02:25.365Z,68.15
2019-05-15T00:03:25.491Z,67.76
2019-05-15T00:04:25.633Z,67.57
2019-05-15T00:05:25.755Z,67.38
2019-05-15T00:06:28.366Z,67.57
2019-05-15T00:07:26.032Z,67.86
2019-05-15T00:08:26.146Z,67.67
2019-05-15T00:09:28.474Z,67.86
2019-05-15T00:10:28.716Z,66.81
2019-05-15T00:11:28.616Z,67.19
2019-05-15T00:12:28.395Z,66.62
2019-05-15T00:13:28.219Z,66.62
2019-05-15T00:14:28.838Z,66.72
2019-05-15T00:15:27.875Z,66.91
2019-05-15T00:16:29.011Z,66.81
2019-05-15T00:17:28.281Z,66.81
2019-05-15T00:18:28.144Z,66.81
2019-05-15T00:19:28.467Z,66.81
2019-05-15T00:20:29.442Z,66.91
2019-05-15T00:21:28.816Z,66.72
2019-05-15T00:22:29.140Z,66.91
2019-05-15T00:23:29.134Z,67.19
2019-05-15T00:24:28.786Z,66.72
2019-05-15T00:25:28.405Z,66.62
2019-05-15T00:26:30.052Z,66.72
2019-05-15T00:27:28.648Z,67.19
2019-05-15T00:28:28.735Z,67.19
2019-05-15T00:29:29.065Z,66.91
2019-05-15T00:30:29.062Z,66.97
2019-05-15T00:31:29.261Z,66.78
2019-05-15T00:32:29.245Z,66.81
2019-05-15T00:33:29.371Z,66.62
2019-05-15T00:34:29.503Z,66.72
2019-05-15T00:35:30.727Z,66.72
2019-05-15T00:36:29.763Z,66.87
2019-05-15T00:37:29.915Z,66.62
2019-05-15T00:38:30.032Z,66.62
2019-05-15T00:39:30.162Z,66.53
2019-05-15T00:40:30.282Z,66.53
2019-05-15T00:41:30.417Z,66.81
2019-05-15T00:42:30.546Z,66.68
2019-05-15T00:43:30.679Z,66.59
2019-05-15T00:44:30.816Z,66.68
2019-05-15T00:45:30.928Z,66.81
2019-05-15T00:46:31.060Z,66.87
2019-05-15T00:47:31.184Z,66.68
2019-05-15T00:48:31.348Z,67.10
2019-05-15T00:49:31.462Z,67.44
2019-05-15T00:50:31.580Z,67.63
2019-05-15T00:51:31.707Z,67.44
2019-05-15T00:52:31.834Z,67.63
2019-05-15T00:53:31.960Z,67.63
2019-05-15T00:54:32.085Z,67.25
2019-05-15T00:55:32.225Z,67.35
2019-05-15T00:56:32.346Z,67.73
2019-05-15T00:57:32.477Z,68.01
2019-05-15T00:58:32.607Z,67.63
2019-05-15T00:59:32.762Z,67.82
2019-05-15T01:00:32.882Z,68.21
2019-05-15T01:01:33.005Z,68.21
2019-05-15T01:02:33.183Z,67.92
2019-05-15T01:03:33.280Z,68.11
2019-05-15T01:04:33.405Z,68.30
2019-05-15T01:05:33.529Z,68.21
2019-05-15T01:06:33.658Z,68.21
2019-05-15T01:07:33.787Z,68.30
2019-05-15T01:08:33.909Z,67.82
2019-05-15T01:09:34.041Z,68.01
2019-05-15T01:10:34.187Z,68.01
2019-05-15T01:11:34.289Z,67.92
2019-05-15T01:12:34.428Z,68.11
2019-05-15T01:13:34.536Z,68.30
2019-05-15T01:14:34.660Z,68.40
2019-05-15T01:15:34.788Z,68.30
2019-05-15T01:16:34.916Z,68.11
2019-05-15T01:17:35.039Z,68.87
2019-05-15T01:18:35.166Z,68.96
2019-05-15T01:19:35.293Z,69.06
2019-05-15T01:20:35.423Z,68.46
2019-05-15T01:21:35.547Z,69.25
2019-05-15T01:22:35.670Z,69.35
2019-05-15T01:23:35.797Z,69.50
2019-05-15T01:24:35.925Z,69.50
2019-05-15T01:25:36.061Z,69.88
2019-05-15T01:26:38.333Z,69.12
2019-05-15T01:27:38.458Z,69.79
2019-05-15T01:28:38.406Z,70.26
2019-05-15T01:29:41.857Z,70.36
2019-05-15T01:30:39.038Z,70.26
2019-05-15T01:31:38.069Z,70.36
2019-05-15T01:32:39.123Z,70.36
2019-05-15T01:33:39.035Z,69.98
2019-05-15T01:34:38.446Z,70.07
2019-05-15T01:35:38.320Z,70.54
2019-05-15T01:36:38.234Z,70.17
2019-05-15T01:37:39.154Z,70.36
2019-05-15T01:38:38.899Z,70.45
2019-05-15T01:39:38.547Z,69.98
2019-05-15T01:40:38.539Z,69.98
2019-05-15T01:41:38.727Z,70.26
2019-05-15T01:42:38.828Z,70.26
2019-05-15T01:43:38.345Z,70.26
2019-05-15T01:44:38.965Z,70.26
2019-05-15T01:45:39.466Z,70.17
2019-05-15T01:46:39.315Z,70.07
2019-05-15T01:47:39.199Z,70.36
2019-05-15T01:48:39.065Z,70.07
2019-05-15T01:49:39.092Z,70.74
2019-05-15T01:50:39.221Z,71.02
2019-05-15T01:51:39.362Z,70.54
2019-05-15T01:52:39.483Z,70.36
2019-05-15T01:53:39.608Z,70.36
2019-05-15T01:54:39.735Z,69.88
2019-05-15T01:55:39.870Z,69.88
2019-05-15T01:56:40.069Z,70.36
2019-05-15T01:57:40.128Z,70.36
2019-05-15T01:58:40.253Z,70.17
2019-05-15T01:59:53.886Z,70.17
2019-05-15T02:00:40.531Z,70.07
2019-05-15T02:01:40.669Z,69.41
2019-05-15T02:02:40.798Z,69.31
2019-05-15T02:03:40.906Z,69.12
2019-05-15T02:04:41.045Z,69.12
2019-05-15T02:05:41.171Z,69.12
2019-05-15T02:06:41.301Z,69.21
2019-05-15T02:07:41.420Z,68.99
2019-05-15T02:08:41.554Z,68.99
2019-05-15T02:09:41.675Z,69.09
2019-05-15T02:10:41.789Z,69.46
2019-05-15T02:11:41.915Z,69.46
2019-05-15T02:12:42.080Z,69.66
2019-05-15T02:13:42.216Z,69.09
2019-05-15T02:14:42.351Z,68.90
2019-05-15T02:15:42.471Z,69.18
2019-05-15T02:16:42.605Z,69.09
2019-05-15T02:17:42.725Z,69.27
2019-05-15T02:18:42.853Z,69.46
2019-05-15T02:19:43.013Z,69.46
2019-05-15T02:20:43.106Z,69.46
2019-05-15T02:21:43.228Z,69.75
2019-05-15T02:22:43.356Z,69.37
2019-05-15T02:23:43.489Z,69.46
2019-05-15T02:24:43.609Z,69.66
2019-05-15T02:25:43.736Z,70.04
2019-05-15T02:26:43.862Z,69.94
2019-05-15T02:27:43.997Z,69.85
2019-05-15T02:28:44.124Z,69.94
2019-05-15T02:29:44.255Z,69.85
2019-05-15T02:30:44.383Z,69.94
2019-05-15T02:31:44.537Z,69.75
2019-05-15T02:32:44.627Z,69.18
2019-05-15T02:33:44.756Z,69.18
2019-05-15T02:34:44.885Z,69.94
2019-05-15T02:35:45.010Z,70.04
2019-05-15T02:36:45.137Z,69.94
2019-05-15T02:37:45.275Z,70.23
2019-05-15T02:38:48.098Z,70.13
2019-05-15T02:39:45.509Z,70.13
2019-05-15T02:40:45.635Z,69.94
2019-05-15T02:41:48.832Z,69.34
2019-05-15T02:42:49.038Z,69.15
2019-05-15T02:43:46.019Z,70.00
2019-05-15T02:44:46.147Z,69.91
2019-05-15T02:45:46.277Z,70.29
2019-05-15T02:46:49.687Z,70.10
2019-05-15T02:47:48.751Z,70.48
2019-05-15T02:48:48.906Z,70.38
2019-05-15T02:49:48.598Z,70.48
2019-05-15T02:50:49.948Z,70.10
2019-05-15T02:51:49.341Z,70.29
2019-05-15T02:52:49.668Z,70.00
2019-05-15T02:53:50.162Z,69.81
2019-05-15T02:54:49.803Z,69.91
2019-05-15T02:55:49.528Z,70.04
2019-05-15T02:56:49.446Z,70.57
2019-05-15T02:57:49.427Z,70.23
2019-05-15T02:58:49.106Z,70.00
2019-05-15T02:59:49.787Z,69.81
2019-05-15T03:00:53.120Z,69.62
2019-05-15T03:01:49.329Z,69.91
2019-05-15T03:02:49.802Z,69.62
2019-05-15T03:03:49.839Z,69.53
2019-05-15T03:04:48.846Z,69.53
2019-05-15T03:05:49.811Z,69.91
2019-05-15T03:06:49.752Z,70.10
2019-05-15T03:07:49.437Z,70.10
2019-05-15T03:08:49.754Z,69.85
2019-05-15T03:09:49.838Z,70.04
2019-05-15T03:10:49.998Z,70.10
2019-05-15T03:11:49.822Z,69.62
2019-05-15T03:12:49.761Z,70.00
2019-05-15T03:13:50.630Z,69.53
2019-05-15T03:14:50.016Z,69.71
2019-05-15T03:15:50.137Z,69.53
2019-05-15T03:16:50.282Z,69.43
2019-05-15T03:17:50.391Z,69.91
2019-05-15T03:18:53.373Z,70.29
2019-05-15T03:19:50.635Z,69.91
2019-05-15T03:20:50.765Z,69.91
2019-05-15T03:21:50.892Z,70.00
2019-05-15T03:22:51.033Z,70.57
2019-05-15T03:23:51.159Z,70.00
2019-05-15T03:24:51.283Z,70.38
2019-05-15T03:25:51.412Z,70.67
2019-05-15T03:26:51.581Z,70.48
2019-05-15T03:27:51.685Z,71.14
2019-05-15T03:28:51.817Z,70.86
2019-05-15T03:29:51.941Z,70.67
2019-05-15T03:31:14.313Z,71.14
2019-05-15T03:32:07.699Z,71.43
2019-05-15T03:33:01.152Z,71.52
2019-05-15T03:33:54.218Z,72.19
2019-05-15T03:34:56.134Z,72.38
2019-05-15T03:35:54.390Z,72.47
2019-05-15T03:36:53.593Z,72.19
2019-05-15T03:37:52.986Z,72.85
2019-05-15T03:38:53.126Z,72.95
2019-05-15T03:39:53.258Z,72.95
2019-05-15T03:40:53.381Z,72.66
2019-05-15T03:41:53.600Z,73.14
2019-05-15T03:42:53.635Z,72.85
2019-05-15T03:43:53.760Z,72.95
2019-05-15T03:44:53.894Z,72.38
2019-05-15T03:45:54.059Z,72.38
2019-05-15T03:46:54.159Z,72.00
2019-05-15T03:47:54.287Z,71.90
2019-05-15T03:48:54.412Z,71.52
2019-05-15T03:49:54.551Z,72.09
2019-05-15T03:50:54.667Z,71.90
2019-05-15T03:51:54.795Z,72.19
2019-05-15T03:52:54.923Z,72.28
2019-05-15T03:53:55.061Z,72.19
2019-05-15T03:54:55.175Z,72.38
2019-05-15T03:55:58.652Z,72.85
2019-05-15T03:56:58.317Z,72.75
2019-05-15T03:57:58.879Z,72.75
2019-05-15T03:58:55.690Z,72.75
2019-05-15T03:59:55.817Z,73.00
2019-05-15T04:00:55.983Z,72.91
2019-05-15T04:01:56.094Z,73.00
2019-05-15T04:02:58.805Z,72.63
2019-05-15T04:03:59.615Z,72.81
2019-05-15T04:04:58.063Z,73.10
2019-05-15T04:06:00.232Z,73.29
2019-05-15T04:06:59.541Z,73.42
2019-05-15T04:07:59.794Z,73.80
2019-05-15T04:08:58.641Z,73.57
2019-05-15T04:09:58.748Z,73.52
2019-05-15T04:10:59.659Z,73.71
2019-05-15T04:12:00.065Z,73.99
2019-05-15T04:12:59.958Z,73.61
2019-05-15T04:13:59.390Z,73.71
2019-05-15T04:14:59.574Z,73.71
2019-05-15T04:15:59.369Z,73.71
2019-05-15T04:16:59.369Z,73.42
2019-05-15T04:18:00.286Z,74.08
2019-05-15T04:18:59.328Z,73.33
2019-05-15T04:19:58.995Z,73.99
2019-05-15T04:21:00.237Z,74.08
2019-05-15T04:22:00.028Z,73.80
2019-05-15T04:23:00.295Z,73.61
2019-05-15T04:23:59.009Z,73.71
2019-05-15T04:24:59.428Z,73.90
2019-05-15T04:25:59.283Z,73.61
2019-05-15T04:26:59.986Z,74.37
2019-05-15T04:27:59.534Z,74.27
2019-05-15T04:29:00.241Z,73.90
2019-05-15T04:29:59.783Z,73.61
2019-05-15T04:30:59.901Z,73.99
2019-05-15T04:32:05.389Z,74.27
2019-05-15T04:33:00.158Z,74.37
2019-05-15T04:34:00.307Z,73.71
2019-05-15T04:35:00.463Z,73.99
2019-05-15T04:36:00.605Z,73.80
2019-05-15T04:37:00.717Z,73.71
2019-05-15T04:38:00.870Z,74.08
2019-05-15T04:39:00.983Z,73.71
2019-05-15T04:40:01.134Z,73.90
2019-05-15T04:41:01.246Z,73.99
2019-05-15T04:42:01.415Z,73.90
2019-05-15T04:43:01.513Z,73.61
2019-05-15T04:44:01.667Z,73.80
2019-05-15T04:45:01.764Z,73.80
2019-05-15T04:46:02.916Z,73.90
2019-05-15T04:47:02.035Z,73.99
2019-05-15T04:48:02.157Z,73.90
2019-05-15T04:49:02.312Z,73.90
2019-05-15T04:50:02.434Z,73.90
2019-05-15T04:51:02.567Z,73.71
2019-05-15T04:52:03.855Z,73.46
2019-05-15T04:53:02.807Z,73.74
2019-05-15T04:54:02.937Z,73.52
2019-05-15T04:55:03.057Z,73.36
2019-05-15T04:56:03.196Z,73.65
2019-05-15T04:57:03.338Z,73.46
2019-05-15T04:58:03.444Z,73.65
2019-05-15T04:59:03.562Z,73.46
2019-05-15T05:00:03.707Z,73.27
2019-05-15T05:01:03.844Z,73.55
2019-05-15T05:02:17.555Z,72.79
2019-05-15T05:03:04.077Z,73.08
2019-05-15T05:04:04.207Z,72.99
2019-05-15T05:05:04.374Z,72.89
2019-05-15T05:06:04.526Z,73.08
2019-05-15T05:07:04.653Z,72.99
2019-05-15T05:08:04.746Z,73.08
2019-05-15T05:09:04.874Z,72.79
2019-05-15T05:10:04.995Z,72.32
2019-05-15T05:11:05.126Z,72.60
2019-05-15T05:12:05.253Z,72.41
2019-05-15T05:13:08.498Z,72.03
2019-05-15T05:14:08.251Z,72.60
2019-05-15T05:15:08.276Z,72.89
2019-05-15T05:16:05.773Z,72.99
2019-05-15T05:17:08.813Z,72.60
2019-05-15T05:18:06.017Z,73.71
2019-05-15T05:19:08.738Z,73.55
2019-05-15T05:20:08.025Z,73.52
2019-05-15T05:21:07.726Z,73.80
2019-05-15T05:22:07.847Z,74.03
2019-05-15T05:23:08.550Z,73.65
2019-05-15T05:24:08.015Z,74.41
2019-05-15T05:25:08.137Z,74.31
2019-05-15T05:26:10.847Z,74.41
2019-05-15T05:27:08.725Z,74.22
2019-05-15T05:28:08.732Z,74.51
2019-05-15T05:29:08.588Z,74.51
2019-05-15T05:30:08.468Z,74.51
2019-05-15T05:31:08.489Z,74.03
2019-05-15T05:32:09.217Z,74.41
2019-05-15T05:33:08.549Z,74.51
2019-05-15T05:34:08.295Z,74.22
2019-05-15T05:35:08.676Z,74.41
2019-05-15T05:36:08.400Z,74.31
2019-05-15T05:37:08.559Z,74.41
2019-05-15T05:38:08.677Z,74.31
2019-05-15T05:39:11.446Z,73.84
2019-05-15T05:40:08.941Z,73.65
2019-05-15T05:41:09.063Z,73.84
2019-05-15T05:42:09.194Z,73.78
2019-05-15T05:43:09.537Z,73.49
2019-05-15T05:44:09.467Z,73.21
2019-05-15T05:45:09.643Z,73.21
2019-05-15T05:46:09.690Z,71.97
2019-05-15T05:47:09.815Z,71.12
2019-05-15T05:48:09.972Z,70.36
2019-05-15T05:49:10.172Z,69.12
2019-05-15T05:50:10.189Z,69.12
2019-05-15T05:51:10.305Z,68.93
2019-05-15T05:52:10.489Z,69.02
2019-05-15T05:53:10.580Z,68.07
2019-05-15T05:54:10.712Z,67.41
2019-05-15T05:55:10.835Z,67.69
2019-05-15T05:56:10.991Z,67.60
2019-05-15T05:57:11.103Z,67.60
2019-05-15T05:58:11.224Z,67.13
2019-05-15T05:59:11.387Z,66.74
2019-05-15T06:00:11.494Z,66.39
2019-05-15T06:01:11.624Z,65.70
2019-05-15T06:02:11.785Z,65.32
2019-05-15T06:03:11.887Z,65.51
2019-05-15T06:04:12.011Z,65.60
2019-05-15T06:05:12.158Z,65.51
2019-05-15T06:06:12.269Z,65.13
2019-05-15T06:07:14.337Z,65.32
2019-05-15T06:08:12.529Z,65.13
2019-05-15T06:09:12.719Z,65.13
2019-05-15T06:10:12.804Z,64.78
2019-05-15T06:11:12.928Z,64.46
2019-05-15T06:12:13.065Z,64.59
2019-05-15T06:13:13.203Z,64.59
2019-05-15T06:14:13.318Z,64.11
2019-05-15T06:15:13.454Z,64.21
2019-05-15T06:16:13.575Z,64.21
2019-05-15T06:17:13.703Z,63.54
2019-05-15T06:18:13.829Z,63.73
2019-05-15T06:19:13.959Z,63.45
2019-05-15T06:20:14.085Z,63.64
2019-05-15T06:21:14.218Z,64.21
2019-05-15T06:22:14.333Z,64.40
2019-05-15T06:23:14.466Z,64.11
2019-05-15T06:24:14.585Z,63.64
2019-05-15T06:25:14.713Z,63.92
2019-05-15T06:26:14.841Z,63.45
2019-05-15T06:27:14.969Z,64.78
2019-05-15T06:28:15.111Z,64.02
2019-05-15T06:29:15.230Z,63.83
2019-05-15T06:30:21.906Z,63.83
2019-05-15T06:31:15.475Z,63.83
2019-05-15T06:32:15.606Z,63.92
2019-05-15T06:33:15.739Z,62.69
2019-05-15T06:34:17.875Z,62.97
2019-05-15T06:35:15.971Z,63.07
2019-05-15T06:36:17.964Z,62.88
2019-05-15T06:37:16.229Z,62.30
2019-05-15T06:38:18.949Z,62.30
2019-05-15T06:39:17.876Z,62.59
2019-05-15T06:40:18.244Z,63.20
2019-05-15T06:41:18.113Z,63.96
2019-05-15T06:42:18.817Z,62.81
2019-05-15T06:43:19.306Z,63.57
2019-05-15T06:44:18.766Z,63.29
2019-05-15T06:45:18.910Z,62.91
2019-05-15T06:46:18.761Z,63.10
2019-05-15T06:47:17.989Z,63.29
2019-05-15T06:48:18.361Z,63.01
2019-05-15T06:49:18.079Z,63.01
2019-05-15T06:50:18.014Z,62.05
2019-05-15T06:51:18.327Z,62.15
2019-05-15T06:52:18.274Z,61.96
2019-05-15T06:53:19.128Z,61.67
2019-05-15T06:54:18.927Z,63.67
2019-05-15T06:55:18.552Z,64.34
2019-05-15T06:56:18.968Z,65.10
2019-05-15T06:57:18.811Z,65.67
2019-05-15T06:58:19.801Z,65.38
2019-05-15T06:59:19.073Z,65.58
2019-05-15T07:00:19.312Z,64.34
2019-05-15T07:01:19.319Z,63.99
2019-05-15T07:02:19.440Z,63.51
2019-05-15T07:03:25.217Z,64.47
2019-05-15T07:04:19.697Z,63.04
2019-05-15T07:05:19.829Z,62.85
2019-05-15T07:06:19.956Z,62.08
2019-05-15T07:07:20.093Z,62.56
2019-05-15T07:08:20.219Z,60.94
2019-05-15T07:09:20.338Z,61.61
2019-05-15T07:10:20.468Z,62.27
2019-05-15T07:11:20.588Z,62.37
2019-05-15T07:12:20.720Z,61.61
2019-05-15T07:13:20.851Z,61.70
2019-05-15T07:14:20.983Z,63.51
2019-05-15T07:15:21.117Z,62.08
2019-05-15T07:16:21.239Z,61.42
2019-05-15T07:17:21.363Z,61.13
2019-05-15T07:18:21.492Z,61.73
2019-05-15T07:19:21.623Z,61.13
2019-05-15T07:20:21.757Z,59.83
2019-05-15T07:21:21.909Z,60.97
2019-05-15T07:22:22.044Z,60.21
2019-05-15T07:23:22.163Z,60.02
2019-05-15T07:24:22.299Z,60.11
2019-05-15T07:25:22.462Z,60.02
2019-05-15T07:26:22.559Z,60.11
2019-05-15T07:27:22.691Z,58.69
2019-05-15T07:28:22.815Z,57.92
2019-05-15T07:29:22.943Z,58.40
2019-05-15T07:30:23.082Z,59.45
2019-05-15T07:31:23.206Z,58.59
2019-05-15T07:32:23.337Z,58.21
2019-05-15T07:33:36.796Z,58.21
2019-05-15T07:34:23.584Z,57.16
2019-05-15T07:35:24.392Z,57.16
2019-05-15T07:36:23.840Z,58.69
2019-05-15T07:37:23.962Z,60.97
2019-05-15T07:38:24.097Z,60.02
2019-05-15T07:39:24.228Z,57.92
2019-05-15T07:40:24.355Z,57.92
2019-05-15T07:41:24.489Z,57.07
2019-05-15T07:42:24.621Z,56.87
2019-05-15T07:43:24.748Z,57.35
2019-05-15T07:44:24.877Z,56.30
2019-05-15T07:45:25.002Z,55.26
2019-05-15T07:46:25.138Z,55.73
2019-05-15T07:47:25.257Z,55.26
2019-05-15T07:48:25.389Z,54.39
2019-05-15T07:49:25.514Z,54.11
2019-05-15T07:50:25.653Z,54.30
2019-05-15T07:51:25.781Z,54.78
2019-05-15T07:52:28.656Z,55.26
2019-05-15T07:53:28.697Z,54.21
2019-05-15T07:54:26.168Z,54.02
2019-05-15T07:55:26.300Z,54.49
2019-05-15T07:56:28.765Z,54.39
2019-05-15T07:57:29.702Z,54.43
2019-05-15T07:58:27.811Z,54.02
2019-05-15T07:59:27.996Z,53.83
2019-05-15T08:00:28.855Z,53.06
2019-05-15T08:01:29.107Z,53.73
2019-05-15T08:02:28.450Z,53.16
2019-05-15T08:03:29.227Z,53.54
2019-05-15T08:04:30.727Z,53.85
2019-05-15T08:05:28.581Z,54.43
2019-05-15T08:06:28.989Z,54.52
2019-05-15T08:07:27.978Z,54.43
2019-05-15T08:08:29.006Z,53.85
2019-05-15T08:09:28.438Z,54.04
2019-05-15T08:10:28.492Z,53.85
2019-05-15T08:11:28.636Z,54.04
2019-05-15T08:12:28.526Z,53.85
2019-05-15T08:13:28.993Z,53.85
2019-05-15T08:14:29.162Z,54.04
2019-05-15T08:15:28.915Z,55.38
2019-05-15T08:16:29.041Z,54.43
2019-05-15T08:17:29.166Z,53.66
2019-05-15T08:18:29.290Z,54.33
2019-05-15T08:19:29.446Z,54.33
2019-05-15T08:20:29.570Z,53.95
2019-05-15T08:21:29.677Z,54.43
2019-05-15T08:22:29.805Z,54.71
2019-05-15T08:23:29.945Z,54.43
2019-05-15T08:24:30.104Z,54.52
2019-05-15T08:25:35.067Z,54.43
2019-05-15T08:26:30.321Z,55.47
2019-05-15T08:27:30.476Z,54.52
2019-05-15T08:28:30.682Z,53.31
2019-05-15T08:29:30.684Z,55.88
2019-05-15T08:30:30.810Z,55.50
2019-05-15T08:31:31.007Z,55.21
2019-05-15T08:32:31.073Z,54.45
2019-05-15T08:33:31.200Z,54.07
2019-05-15T08:34:31.366Z,54.55
2019-05-15T08:35:31.473Z,53.59
2019-05-15T08:36:31.605Z,52.07
2019-05-15T08:37:31.773Z,52.55
2019-05-15T08:38:31.874Z,52.55
2019-05-15T08:39:31.996Z,52.64
2019-05-15T08:40:32.131Z,53.41
2019-05-15T08:41:32.286Z,53.12
2019-05-15T08:42:32.457Z,52.73
2019-05-15T08:43:32.536Z,52.64
2019-05-15T08:44:32.684Z,52.55
2019-05-15T08:45:32.869Z,52.55
2019-05-15T08:46:33.066Z,53.97
2019-05-15T08:47:33.058Z,53.41
2019-05-15T08:48:33.184Z,53.12
2019-05-15T08:49:33.335Z,51.12
2019-05-15T08:50:33.441Z,49.87
2019-05-15T08:51:33.579Z,51.12
2019-05-15T08:52:33.720Z,50.63
2019-05-15T08:53:33.863Z,49.49
2019-05-15T08:54:33.973Z,49.40
2019-05-15T08:55:34.115Z,48.92
2019-05-15T08:56:34.230Z,50.63
2019-05-15T08:57:34.381Z,51.59
2019-05-15T08:58:34.499Z,51.40
2019-05-15T08:59:34.631Z,51.31
2019-05-15T09:00:34.947Z,51.21
2019-05-15T09:01:34.901Z,51.12
2019-05-15T09:02:35.029Z,51.21
2019-05-15T09:03:35.163Z,51.40
2019-05-15T09:04:35.397Z,51.31
2019-05-15T09:05:35.434Z,50.35
2019-05-15T09:06:40.961Z,48.73
2019-05-15T09:07:38.157Z,49.59
2019-05-15T09:08:38.749Z,49.33
2019-05-15T09:09:38.224Z,51.04
2019-05-15T09:10:38.485Z,52.00
2019-05-15T09:11:38.787Z,51.90
2019-05-15T09:12:38.574Z,52.38
2019-05-15T09:13:42.220Z,51.81
2019-05-15T09:14:38.072Z,51.43
2019-05-15T09:15:39.536Z,51.43
2019-05-15T09:16:38.718Z,50.67
2019-05-15T09:17:39.750Z,50.38
2019-05-15T09:18:39.195Z,50.47
2019-05-15T09:19:38.791Z,51.52
2019-05-15T09:20:38.371Z,51.90
2019-05-15T09:21:38.848Z,50.38
2019-05-15T09:22:38.202Z,50.67
2019-05-15T09:23:38.853Z,51.52
2019-05-15T09:24:37.996Z,53.24
2019-05-15T09:25:38.998Z,51.71
2019-05-15T09:26:40.456Z,50.67
2019-05-15T09:27:38.531Z,50.47
2019-05-15T09:28:39.050Z,51.14
2019-05-15T09:29:38.583Z,51.90
2019-05-15T09:30:39.228Z,50.38
2019-05-15T09:31:39.342Z,50.76
2019-05-15T09:32:39.445Z,49.90
2019-05-15T09:33:39.032Z,49.62
2019-05-15T09:34:50.812Z,51.62
2019-05-15T09:35:39.475Z,51.62
2019-05-15T09:36:42.360Z,51.04
2019-05-15T09:37:39.548Z,51.90
2019-05-15T09:38:39.677Z,49.90
2019-05-15T09:39:39.804Z,49.62
2019-05-15T09:40:46.209Z,49.71
2019-05-15T09:41:40.067Z,48.85
2019-05-15T09:42:40.200Z,49.04
2019-05-15T09:43:42.319Z,49.99
2019-05-15T09:44:40.478Z,49.90
2019-05-15T09:45:40.596Z,50.18
2019-05-15T09:46:40.735Z,50.02
2019-05-15T09:47:40.867Z,48.30
2019-05-15T09:48:40.996Z,48.39
2019-05-15T09:49:41.123Z,48.68
2019-05-15T09:50:41.261Z,48.88
2019-05-15T09:51:41.509Z,47.32
2019-05-15T09:52:41.506Z,47.13
2019-05-15T09:53:41.642Z,47.32
2019-05-15T09:54:41.780Z,47.13
2019-05-15T09:55:41.933Z,47.52
2019-05-15T09:56:42.060Z,48.47
2019-05-15T09:57:42.191Z,48.47
2019-05-15T09:58:42.300Z,47.89
2019-05-15T09:59:42.486Z,49.44
2019-05-15T10:00:42.614Z,52.12
2019-05-15T10:01:42.749Z,51.93
2019-05-15T10:02:42.873Z,51.54
2019-05-15T10:03:44.495Z,51.35
2019-05-15T10:04:43.208Z,51.83
2019-05-15T10:05:43.344Z,47.44
2019-05-15T10:06:43.461Z,47.92
2019-05-15T10:07:43.617Z,48.21
2019-05-15T10:08:43.745Z,47.16
2019-05-15T10:09:43.866Z,46.87
2019-05-15T10:10:43.996Z,46.30
2019-05-15T10:11:44.149Z,47.82
2019-05-15T10:12:44.268Z,48.30
2019-05-15T10:13:44.390Z,48.30
2019-05-15T10:14:44.521Z,47.82
2019-05-15T10:15:47.616Z,47.94
2019-05-15T10:16:44.783Z,47.37
2019-05-15T10:17:44.928Z,47.27
2019-05-15T10:18:45.064Z,48.52
2019-05-15T10:19:45.184Z,46.70
2019-05-15T10:20:45.316Z,46.61
2019-05-15T10:21:45.444Z,48.71
2019-05-15T10:22:45.575Z,47.18
2019-05-15T10:23:45.701Z,46.99
2019-05-15T10:24:50.513Z,46.32
2019-05-15T10:25:48.223Z,46.32
2019-05-15T10:26:46.093Z,47.37
2019-05-15T10:27:48.608Z,46.61
2019-05-15T10:28:48.993Z,46.80
2019-05-15T10:29:48.416Z,46.32
2019-05-15T10:30:49.363Z,44.79
2019-05-15T10:31:48.277Z,45.94
2019-05-15T10:32:48.733Z,45.08
2019-05-15T10:33:49.180Z,45.08
2019-05-15T10:34:47.129Z,45.94
2019-05-15T10:35:47.261Z,45.94
2019-05-15T10:36:49.385Z,46.22
2019-05-15T10:37:48.736Z,45.46
2019-05-15T10:38:48.875Z,44.22
2019-05-15T10:39:52.072Z,44.02
2019-05-15T10:40:59.858Z,44.12
2019-05-15T10:41:48.309Z,44.60
2019-05-15T10:42:49.480Z,43.86
2019-05-15T10:43:55.984Z,43.66
2019-05-15T10:44:48.894Z,43.09
2019-05-15T10:45:50.088Z,42.61
2019-05-15T10:46:48.700Z,41.75
2019-05-15T10:47:49.548Z,42.24
2019-05-15T10:48:49.483Z,43.57
2019-05-15T10:49:49.096Z,43.66
2019-05-15T10:50:49.269Z,43.40
2019-05-15T10:51:49.404Z,42.93
2019-05-15T10:52:49.536Z,43.50
2019-05-15T10:53:49.674Z,44.07
2019-05-15T10:54:49.795Z,44.26
2019-05-15T10:55:49.921Z,43.50
2019-05-15T10:56:50.056Z,44.26
2019-05-15T10:57:50.201Z,43.79
2019-05-15T10:58:50.769Z,42.93
2019-05-15T10:59:50.468Z,43.79
2019-05-15T11:00:50.593Z,43.88
2019-05-15T11:01:50.731Z,43.59
2019-05-15T11:02:50.862Z,43.88
2019-05-15T11:03:51.010Z,43.50
2019-05-15T11:04:51.135Z,43.50
2019-05-15T11:05:51.257Z,43.59
2019-05-15T11:06:51.413Z,43.59
2019-05-15T11:07:51.539Z,43.50
2019-05-15T11:08:51.780Z,43.69
2019-05-15T11:09:51.804Z,43.59
2019-05-15T11:10:52.005Z,42.83
2019-05-15T11:11:52.070Z,44.26
2019-05-15T11:12:52.197Z,43.50
2019-05-15T11:13:52.343Z,42.64
2019-05-15T11:14:52.477Z,43.33
2019-05-15T11:15:52.599Z,42.66
2019-05-15T11:16:52.725Z,44.57
2019-05-15T11:17:52.852Z,44.95
2019-05-15T11:18:53.584Z,42.94
2019-05-15T11:19:53.114Z,42.27
2019-05-15T11:20:53.241Z,42.56
2019-05-15T11:21:53.380Z,41.51
2019-05-15T11:22:53.503Z,42.08
2019-05-15T11:23:53.641Z,42.18
2019-05-15T11:24:53.782Z,41.99
2019-05-15T11:25:53.911Z,41.89
2019-05-15T11:26:56.098Z,41.22
2019-05-15T11:27:54.208Z,40.65
2019-05-15T11:28:54.312Z,41.22
2019-05-15T11:29:54.447Z,41.51
2019-05-15T11:30:54.569Z,42.76
2019-05-15T11:31:54.710Z,42.27
2019-05-15T11:32:54.839Z,40.94
2019-05-15T11:33:55.013Z,41.61
2019-05-15T11:34:55.109Z,42.76
2019-05-15T11:36:02.021Z,42.27
2019-05-15T11:36:55.375Z,42.01
2019-05-15T11:37:56.986Z,41.34
2019-05-15T11:38:55.646Z,40.95
2019-05-15T11:39:55.777Z,42.40
2019-05-15T11:40:55.906Z,42.49
2019-05-15T11:41:56.037Z,41.91
2019-05-15T11:42:56.184Z,42.40
2019-05-15T11:43:56.309Z,42.11
2019-05-15T11:44:58.427Z,42.20
2019-05-15T11:45:58.753Z,42.20
2019-05-15T11:46:58.632Z,41.34
2019-05-15T11:47:56.840Z,41.24
2019-05-15T11:48:58.779Z,41.91
2019-05-15T11:49:58.491Z,41.91
2019-05-15T11:50:57.275Z,41.24
2019-05-15T11:52:00.465Z,40.67
2019-05-15T11:52:58.610Z,42.97
2019-05-15T11:53:58.798Z,42.97
2019-05-15T11:54:58.952Z,41.94
2019-05-15T11:55:59.824Z,41.34
2019-05-15T11:56:59.668Z,41.82
2019-05-15T11:57:59.412Z,41.34
2019-05-15T11:58:58.367Z,41.91
2019-05-15T11:59:59.511Z,42.58
2019-05-15T12:00:58.619Z,42.87
2019-05-15T12:01:58.756Z,42.40
2019-05-15T12:02:58.881Z,42.20
2019-05-15T12:03:59.086Z,41.53
2019-05-15T12:04:59.158Z,41.34
2019-05-15T12:06:14.597Z,42.20
2019-05-15T12:07:02.511Z,42.68
2019-05-15T12:07:59.609Z,42.80
2019-05-15T12:08:59.775Z,43.92
2019-05-15T12:09:59.911Z,42.41
2019-05-15T12:11:00.038Z,41.63
2019-05-15T12:12:00.171Z,42.11
2019-05-15T12:13:00.300Z,42.32
2019-05-15T12:14:00.473Z,42.41
2019-05-15T12:15:00.581Z,42.99
2019-05-15T12:16:00.713Z,44.23
2019-05-15T12:17:10.405Z,43.66
2019-05-15T12:18:01.058Z,42.41
2019-05-15T12:19:09.014Z,41.84
2019-05-15T12:20:06.442Z,42.90
2019-05-15T12:21:01.385Z,42.90
2019-05-15T12:22:01.538Z,42.51
2019-05-15T12:23:01.667Z,41.84
2019-05-15T12:24:01.810Z,41.84
2019-05-15T12:25:02.027Z,42.60
2019-05-15T12:26:02.086Z,42.60
2019-05-15T12:28:02.286Z,43.85
2019-05-15T12:29:02.411Z,44.93
2019-05-15T12:30:02.571Z,42.63
2019-05-15T12:31:02.678Z,41.28
2019-05-15T12:32:21.858Z,41.09
2019-05-15T12:33:02.948Z,42.05
2019-05-15T12:34:03.096Z,41.65
2019-05-15T12:35:03.217Z,42.03
2019-05-15T12:36:03.350Z,42.22
2019-05-15T12:37:03.493Z,42.80
2019-05-15T12:38:03.639Z,42.41
2019-05-15T12:39:10.671Z,42.53
2019-05-15T13:00:07.584Z,40.23
2019-05-15T13:01:14.722Z,41.38
2019-05-15T13:02:08.203Z,39.56
2019-05-15T13:03:09.085Z,39.28
2019-05-15T13:04:08.223Z,39.65
2019-05-15T13:05:08.406Z,40.23
2019-05-15T13:06:08.121Z,41.19
2019-05-15T13:07:13.913Z,39.65
2019-05-15T13:08:08.354Z,38.98
2019-05-15T13:09:08.642Z,39.37
2019-05-15T13:10:08.734Z,38.98
2019-05-15T13:11:09.805Z,38.89
2019-05-15T13:12:08.611Z,38.60
2019-05-15T13:13:09.652Z,38.03
2019-05-15T13:14:08.457Z,37.84
2019-05-15T13:15:08.587Z,38.12